createdAt,value
2023-05-21T00:00:44.914Z,101060.16
2023-05-21T00:03:14.580Z,101061.25
2023-05-21T00:05:42.069Z,101067.53
2023-05-21T00:08:09.444Z,101069.97
2023-05-21T00:10:36.845Z,101071.28
2023-05-21T00:13:04.172Z,101068.69
2023-05-21T00:15:31.458Z,101058.03
2023-05-21T00:17:58.801Z,101062.56
2023-05-21T00:20:26.171Z,101058.91
2023-05-21T00:22:53.562Z,101061.56
2023-05-21T00:25:20.984Z,101059.66
2023-05-21T00:27:49.303Z,101055.00
2023-05-21T00:30:17.009Z,101053.41
2023-05-21T00:32:44.496Z,101057.38
2023-05-21T00:35:12.052Z,101048.81
2023-05-21T00:37:39.323Z,101057.03
2023-05-21T00:40:08.998Z,101046.75
2023-05-21T00:42:39.343Z,101048.06
2023-05-21T00:45:07.849Z,101051.34
2023-05-21T00:47:35.908Z,101039.31
2023-05-21T00:50:04.208Z,101041.31
2023-05-21T00:52:31.485Z,101032.78
2023-05-21T00:54:58.847Z,101028.38
2023-05-21T00:57:27.219Z,101031.72
2023-05-21T00:59:54.687Z,101029.06
2023-05-21T01:02:24.472Z,101029.31
2023-05-21T01:04:54.759Z,101033.38
2023-05-21T01:07:22.059Z,101022.00
2023-05-21T01:09:49.620Z,101026.84
2023-05-21T01:12:18.059Z,101020.16
2023-05-21T01:14:45.902Z,101024.97
2023-05-21T01:17:13.845Z,101030.28
2023-05-21T01:19:42.686Z,101027.66
2023-05-21T01:22:10.882Z,101028.84
2023-05-21T01:24:38.318Z,101045.44
2023-05-21T01:27:07.714Z,101029.41
2023-05-21T01:29:35.137Z,101036.38
2023-05-21T01:32:09.872Z,101036.50
2023-05-21T01:34:43.301Z,101032.72
2023-05-21T01:37:24.376Z,101034.84
2023-05-21T01:40:04.001Z,101037.84
2023-05-21T01:42:32.284Z,101037.75
2023-05-21T01:45:00.298Z,101034.75
2023-05-21T01:47:29.476Z,101031.16
2023-05-21T01:49:57.083Z,101034.78
2023-05-21T01:52:24.599Z,101026.38
2023-05-21T01:54:54.335Z,101036.03
2023-05-21T01:57:21.726Z,101031.16
2023-05-21T01:59:49.070Z,101030.75
2023-05-21T02:02:16.632Z,101031.78
2023-05-21T02:04:44.315Z,101029.31
2023-05-21T02:07:14.582Z,101029.81
2023-05-21T02:09:41.974Z,101040.31
2023-05-21T02:12:09.310Z,101036.00
2023-05-21T02:14:38.355Z,101039.69
2023-05-21T02:17:05.772Z,101031.84
2023-05-21T02:19:33.072Z,101038.41
2023-05-21T02:22:00.513Z,101038.06
2023-05-21T02:24:27.780Z,101041.50
2023-05-21T02:26:55.022Z,101039.97
2023-05-21T02:29:22.368Z,101036.47
2023-05-21T02:31:50.985Z,101042.72
2023-05-21T02:34:20.776Z,101037.56
2023-05-21T02:36:54.713Z,101037.06
2023-05-21T02:39:22.396Z,101032.13
2023-05-21T02:41:49.679Z,101029.13
2023-05-21T02:44:19.034Z,101038.25
2023-05-21T02:46:46.408Z,101035.78
2023-05-21T02:49:13.821Z,101039.03
2023-05-21T02:51:42.473Z,101046.88
2023-05-21T02:54:09.766Z,101035.53
2023-05-21T02:56:37.086Z,101035.25
2023-05-21T02:59:04.413Z,101034.28
2023-05-21T03:01:32.023Z,101033.59
2023-05-21T03:03:59.382Z,101031.13
2023-05-21T03:06:26.693Z,101033.59
2023-05-21T03:08:54.117Z,101038.53
2023-05-21T03:11:22.495Z,101033.59
2023-05-21T03:13:50.004Z,101033.97
2023-05-21T03:16:17.624Z,101046.81
2023-05-21T03:18:45.145Z,101037.44
2023-05-21T03:21:13.273Z,101047.59
2023-05-21T03:23:41.888Z,101051.00
2023-05-21T03:26:09.260Z,101045.47
2023-05-21T03:28:36.517Z,101052.13
2023-05-21T03:31:04.197Z,101054.13
2023-05-21T03:33:46.106Z,101054.19
2023-05-21T03:36:21.769Z,101046.09
2023-05-21T03:38:49.168Z,101049.25
2023-05-21T03:41:16.487Z,101054.09
2023-05-21T03:43:47.441Z,101044.22
2023-05-21T03:46:14.942Z,101049.31
2023-05-21T03:49:05.991Z,101055.19
2023-05-21T03:51:36.044Z,101062.75
2023-05-21T03:54:03.231Z,101055.53
2023-05-21T03:56:31.290Z,101057.97
2023-05-21T03:58:58.574Z,101054.03
2023-05-21T04:01:28.345Z,101050.78
2023-05-21T04:03:56.315Z,101058.78
2023-05-21T04:06:25.534Z,101061.22
2023-05-21T04:08:52.864Z,101067.53
2023-05-21T04:11:20.214Z,101059.59
2023-05-21T04:13:48.942Z,101064.63
2023-05-21T04:16:19.277Z,101077.22
2023-05-21T04:18:47.366Z,101079.63
2023-05-21T04:21:16.377Z,101078.97
2023-05-21T04:23:43.992Z,101076.25
2023-05-21T04:26:23.810Z,101076.56
2023-05-21T04:28:51.250Z,101083.19
2023-05-21T04:31:18.667Z,101087.44
2023-05-21T04:33:46.209Z,101089.25
2023-05-21T04:36:13.737Z,101084.19
2023-05-21T04:38:41.891Z,101087.44
2023-05-21T04:41:10.807Z,101086.78
2023-05-21T04:43:38.376Z,101086.44
2023-05-21T04:46:06.071Z,101082.28
2023-05-21T04:48:34.477Z,101086.59
2023-05-21T04:51:01.964Z,101089.25
2023-05-21T04:53:29.955Z,101095.66
2023-05-21T04:55:59.454Z,101090.56
2023-05-21T04:58:28.014Z,101088.63
2023-05-21T05:00:56.034Z,101088.88
2023-05-21T05:03:23.494Z,101081.38
2023-05-21T05:05:51.607Z,101078.22
2023-05-21T05:08:18.971Z,101084.53
2023-05-21T05:10:46.451Z,101081.81
2023-05-21T05:13:13.836Z,101084.81
2023-05-21T05:15:41.461Z,101081.53
2023-05-21T05:18:09.114Z,101088.78
2023-05-21T05:20:36.481Z,101086.69
2023-05-21T05:23:03.786Z,101073.00
2023-05-21T05:25:31.203Z,101079.94
2023-05-21T05:27:58.864Z,101079.47
2023-05-21T05:30:26.282Z,101085.00
2023-05-21T05:32:56.880Z,101083.13
2023-05-21T05:35:24.730Z,101081.19
2023-05-21T05:37:52.082Z,101081.22
2023-05-21T05:40:19.417Z,101082.31
2023-05-21T05:42:46.907Z,101075.44
2023-05-21T05:45:16.272Z,101094.75
2023-05-21T05:47:45.684Z,101085.00
2023-05-21T05:50:13.069Z,101085.38
2023-05-21T05:52:41.048Z,101086.63
2023-05-21T05:55:09.053Z,101077.78
2023-05-21T05:57:36.617Z,101082.03
2023-05-21T06:00:12.847Z,101081.28
2023-05-21T06:02:41.026Z,101086.81
2023-05-21T06:05:10.059Z,101085.53
2023-05-21T06:07:38.575Z,101077.88
2023-05-21T06:10:06.998Z,101079.53
2023-05-21T06:12:34.509Z,101083.78
2023-05-21T06:15:01.914Z,101083.22
2023-05-21T06:17:29.884Z,101075.25
2023-05-21T06:19:57.561Z,101081.75
2023-05-21T06:22:25.888Z,101079.94
2023-05-21T06:24:53.584Z,101075.94
2023-05-21T06:27:21.738Z,101080.13
2023-05-21T06:29:50.044Z,101087.22
2023-05-21T06:32:17.621Z,101087.44
2023-05-21T06:34:45.017Z,101097.16
2023-05-21T06:37:12.366Z,101093.47
2023-05-21T06:39:39.654Z,101091.38
2023-05-21T06:42:07.350Z,101091.38
2023-05-21T06:44:54.825Z,101087.91
2023-05-21T06:47:43.777Z,101088.34
2023-05-21T06:50:11.288Z,101092.09
2023-05-21T06:52:38.608Z,101086.00
2023-05-21T06:55:08.178Z,101089.94
2023-05-21T06:58:00.870Z,101093.94
2023-05-21T07:00:28.189Z,101093.28
2023-05-21T07:02:55.764Z,101095.56
2023-05-21T07:05:23.122Z,101093.09
2023-05-21T07:07:50.704Z,101097.47
2023-05-21T07:10:18.051Z,101083.13
2023-05-21T07:12:45.488Z,101098.00
2023-05-21T07:15:12.846Z,101088.78
2023-05-21T07:17:40.216Z,101101.56
2023-05-21T07:20:09.927Z,101102.72
2023-05-21T07:22:39.419Z,101092.25
2023-05-21T07:25:09.151Z,101102.97
2023-05-21T07:27:36.486Z,101096.06
2023-05-21T07:30:04.996Z,101108.28
2023-05-21T07:32:33.099Z,101093.72
2023-05-21T07:35:03.957Z,101091.53
2023-05-21T07:37:32.200Z,101099.53
2023-05-21T07:40:00.005Z,101104.25
2023-05-21T07:42:27.382Z,101094.69
2023-05-21T07:44:56.784Z,101106.84
2023-05-21T07:47:26.003Z,101100.72
2023-05-21T07:49:53.459Z,101095.47
2023-05-21T07:52:21.256Z,101103.28
2023-05-21T07:54:48.662Z,101098.72
2023-05-21T07:57:16.618Z,101085.25
2023-05-21T07:59:59.871Z,101085.13
2023-05-21T08:02:27.426Z,101087.09
2023-05-21T08:04:55.283Z,101090.72
2023-05-21T08:07:22.834Z,101089.63
2023-05-21T08:09:50.202Z,101087.91
2023-05-21T08:12:19.223Z,101101.34
2023-05-21T08:14:46.446Z,101103.72
2023-05-21T08:17:16.467Z,101093.94
2023-05-21T08:19:44.627Z,101098.72
2023-05-21T08:22:12.113Z,101091.09
2023-05-21T08:24:42.773Z,101102.78
2023-05-21T08:27:10.259Z,101072.53
2023-05-21T08:29:38.116Z,101076.69
2023-05-21T08:32:06.905Z,101071.81
2023-05-21T08:34:34.276Z,101076.91
2023-05-21T08:37:18.425Z,101067.56
2023-05-21T08:40:00.907Z,101062.88
2023-05-21T08:42:43.909Z,101075.66
2023-05-21T08:45:22.365Z,101082.47
2023-05-21T08:47:59.625Z,101073.88
2023-05-21T08:50:31.540Z,101073.34
2023-05-21T08:53:07.508Z,101071.09
2023-05-21T08:55:43.901Z,101060.84
2023-05-21T08:58:13.680Z,101052.94
2023-05-21T09:00:41.178Z,101047.88
2023-05-21T09:03:12.450Z,101055.25
2023-05-21T09:05:42.332Z,101051.16
2023-05-21T09:08:22.091Z,101048.84
2023-05-21T09:11:08.619Z,101070.34
2023-05-21T09:13:43.748Z,101070.19
2023-05-21T09:16:17.554Z,101057.38
2023-05-21T09:18:45.890Z,101057.53
2023-05-21T09:21:24.490Z,101071.09
2023-05-21T09:23:57.292Z,101067.41
2023-05-21T09:26:25.730Z,101054.47
2023-05-21T09:28:58.373Z,101065.22
2023-05-21T09:31:26.906Z,101045.81
2023-05-21T09:33:55.803Z,101051.81
2023-05-21T09:36:24.484Z,101060.00
2023-05-21T09:38:52.437Z,101054.06
2023-05-21T09:41:22.118Z,101053.34
2023-05-21T09:43:49.892Z,101048.19
2023-05-21T09:46:21.864Z,101072.78
2023-05-21T09:48:49.265Z,101046.56
2023-05-21T09:51:20.466Z,101045.31
2023-05-21T09:53:57.884Z,101047.22
2023-05-21T09:56:26.857Z,101033.94
2023-05-21T09:58:55.138Z,101038.88
2023-05-21T10:01:23.979Z,101035.72
2023-05-21T10:03:57.186Z,101046.38
2023-05-21T10:06:27.101Z,101019.81
2023-05-21T10:08:59.821Z,101025.91
2023-05-21T10:11:28.027Z,101033.03
2023-05-21T10:14:01.606Z,101030.88
2023-05-21T10:16:29.832Z,101025.72
2023-05-21T10:18:58.153Z,101045.25
2023-05-21T10:21:26.595Z,101029.59
2023-05-21T10:23:57.128Z,101025.38
2023-05-21T10:26:25.160Z,101026.72
2023-05-21T10:28:52.494Z,101034.94
2023-05-21T10:31:20.161Z,101033.56
2023-05-21T10:33:48.964Z,101022.72
2023-05-21T10:36:20.262Z,101017.50
2023-05-21T10:38:47.955Z,101017.34
2023-05-21T10:41:16.271Z,101024.25
2023-05-21T10:44:01.588Z,101019.28
2023-05-21T10:46:38.024Z,101022.50
2023-05-21T10:49:30.697Z,101013.91
2023-05-21T10:52:25.951Z,101010.09
2023-05-21T10:55:12.877Z,100997.16
2023-05-21T10:57:59.744Z,101013.63
2023-05-21T11:00:27.660Z,101006.28
2023-05-21T11:02:55.983Z,100996.97
2023-05-21T11:05:57.547Z,101002.78
2023-05-21T11:08:25.920Z,100999.75
2023-05-21T11:10:54.971Z,100991.22
2023-05-21T11:13:25.046Z,100988.78
2023-05-21T11:15:58.313Z,100994.69
2023-05-21T11:18:46.176Z,100985.63
2023-05-21T11:21:18.698Z,100990.38
2023-05-21T11:23:52.463Z,100984.59
2023-05-21T11:26:24.169Z,100996.88
2023-05-21T11:29:03.397Z,100983.78
2023-05-21T11:31:38.330Z,100980.50
2023-05-21T11:34:15.145Z,100980.09
2023-05-21T11:36:48.288Z,100979.97
2023-05-21T11:39:24.039Z,100973.75
2023-05-21T11:41:54.896Z,100984.13
2023-05-21T11:44:39.452Z,100974.16
2023-05-21T11:47:08.177Z,100973.03
2023-05-21T11:49:36.640Z,100981.13
2023-05-21T11:52:05.633Z,100972.16
2023-05-21T11:54:37.605Z,100983.00
2023-05-21T11:57:08.553Z,100979.75
2023-05-21T11:59:37.131Z,100978.16
2023-05-21T12:02:05.289Z,100964.53
2023-05-21T12:04:32.983Z,100976.16
2023-05-21T12:07:05.098Z,100967.59
2023-05-21T12:09:39.047Z,100955.75
2023-05-21T12:12:08.946Z,100964.94
2023-05-21T12:14:37.363Z,100970.88
2023-05-21T12:17:05.868Z,100972.34
2023-05-21T12:19:37.663Z,100965.81
2023-05-21T12:22:05.961Z,100957.81
2023-05-21T12:24:34.621Z,100968.09
2023-05-21T12:27:02.984Z,100965.38
2023-05-21T12:29:31.830Z,100963.16
2023-05-21T12:32:00.533Z,100952.22
2023-05-21T12:34:46.786Z,100955.41
2023-05-21T12:37:24.428Z,100948.47
2023-05-21T12:39:53.068Z,100944.06
2023-05-21T12:42:30.791Z,100946.66
2023-05-21T12:44:58.480Z,100950.00
2023-05-21T12:47:27.373Z,100935.09
2023-05-21T12:49:58.090Z,100933.88
2023-05-21T12:52:27.219Z,100938.50
2023-05-21T12:54:56.584Z,100961.22
2023-05-21T12:57:25.112Z,100956.47
2023-05-21T12:59:56.880Z,100945.84
2023-05-21T13:02:24.134Z,100961.22
2023-05-21T13:04:58.259Z,100948.78
2023-05-21T13:07:26.575Z,100957.22
2023-05-21T13:09:54.589Z,100942.56
2023-05-21T13:12:23.897Z,100943.38
2023-05-21T13:14:51.688Z,100951.56
2023-05-21T13:17:19.889Z,100945.75
2023-05-21T13:20:18.402Z,100932.78
2023-05-21T13:22:49.995Z,100940.09
2023-05-21T13:25:20.989Z,100954.13
2023-05-21T13:27:49.326Z,100934.25
2023-05-21T13:30:17.423Z,100928.44
2023-05-21T13:32:45.201Z,100930.28
2023-05-21T13:35:13.127Z,100934.56
2023-05-21T13:37:41.062Z,100929.84
2023-05-21T13:40:15.522Z,100929.34
2023-05-21T13:42:47.889Z,100933.22
2023-05-21T13:45:17.291Z,100938.69
2023-05-21T13:47:46.237Z,100944.19
2023-05-21T13:50:14.048Z,100943.50
2023-05-21T13:52:41.678Z,100935.88
2023-05-21T13:55:10.534Z,100944.31
2023-05-21T13:57:37.979Z,100930.16
2023-05-21T14:00:06.065Z,100942.06
2023-05-21T14:02:35.295Z,100918.06
2023-05-21T14:05:02.736Z,100930.66
2023-05-21T14:07:30.217Z,100945.00
2023-05-21T14:09:58.211Z,100935.91
2023-05-21T14:12:26.688Z,100926.66
2023-05-21T14:14:53.950Z,100935.25
2023-05-21T14:17:21.285Z,100917.56
2023-05-21T14:19:48.704Z,100937.91
2023-05-21T14:22:16.071Z,100938.53
2023-05-21T14:24:43.404Z,100929.06
2023-05-21T14:27:11.395Z,100928.16
2023-05-21T14:29:39.555Z,100935.91
2023-05-21T14:32:07.579Z,100927.75
2023-05-21T14:34:35.039Z,100934.38
2023-05-21T14:37:02.339Z,100928.28
2023-05-21T14:39:29.750Z,100922.38
2023-05-21T14:41:57.132Z,100912.38
2023-05-21T14:44:24.446Z,100920.78
2023-05-21T14:46:51.759Z,100918.41
2023-05-21T14:49:19.150Z,100923.19
2023-05-21T14:51:47.631Z,100923.06
2023-05-21T14:54:14.975Z,100916.78
2023-05-21T14:56:42.358Z,100927.38
2023-05-21T14:59:11.475Z,100911.75
2023-05-21T15:01:39.195Z,100909.72
2023-05-21T15:04:08.042Z,100910.06
2023-05-21T15:06:35.519Z,100912.13
2023-05-21T15:09:02.999Z,100919.84
2023-05-21T15:11:30.321Z,100911.47
2023-05-21T15:13:57.837Z,100913.13
2023-05-21T15:16:25.278Z,100927.03
2023-05-21T15:18:53.483Z,100924.72
2023-05-21T15:21:20.929Z,100928.66
2023-05-21T15:23:48.315Z,100916.50
2023-05-21T15:26:15.550Z,100909.78
2023-05-21T15:28:43.428Z,100907.84
2023-05-21T15:31:11.334Z,100913.25
2023-05-21T15:33:38.588Z,100919.22
2023-05-21T15:36:06.244Z,100925.00
2023-05-21T15:38:33.594Z,100922.16
2023-05-21T15:41:00.831Z,100915.63
2023-05-21T15:43:28.049Z,100911.47
2023-05-21T15:45:55.386Z,100921.13
2023-05-21T15:48:23.124Z,100924.38
2023-05-21T15:50:50.649Z,100904.63
2023-05-21T15:53:17.925Z,100913.84
2023-05-21T15:55:45.569Z,100917.16
2023-05-21T15:58:12.994Z,100914.09
2023-05-21T16:00:40.428Z,100918.97
2023-05-21T16:03:08.114Z,100920.22
2023-05-21T16:05:36.031Z,100915.50
2023-05-21T16:08:03.672Z,100910.81
2023-05-21T16:10:31.416Z,100918.84
2023-05-21T16:12:59.095Z,100909.22
2023-05-21T16:15:28.463Z,100909.66
2023-05-21T16:17:55.970Z,100901.16
2023-05-21T16:20:23.413Z,100921.09
2023-05-21T16:22:51.161Z,100928.22
2023-05-21T16:25:18.408Z,100923.06
2023-05-21T16:27:45.739Z,100925.97
2023-05-21T16:30:14.221Z,100917.63
2023-05-21T16:32:41.835Z,100921.47
2023-05-21T16:35:09.232Z,100926.75
2023-05-21T16:37:36.597Z,100924.28
2023-05-21T16:40:04.696Z,100926.47
2023-05-21T16:42:32.048Z,100921.09
2023-05-21T16:44:59.366Z,100910.75
2023-05-21T16:47:26.727Z,100921.44
2023-05-21T16:49:55.855Z,100920.25
2023-05-21T16:52:23.823Z,100921.97
2023-05-21T16:54:51.397Z,100921.69
2023-05-21T16:57:18.685Z,100924.72
2023-05-21T16:59:45.978Z,100926.59
2023-05-21T17:02:13.863Z,100927.44
2023-05-21T17:04:41.284Z,100930.91
2023-05-21T17:07:08.631Z,100928.72
2023-05-21T17:09:35.980Z,100918.47
2023-05-21T17:12:03.802Z,100930.09
2023-05-21T17:14:34.281Z,100922.66
2023-05-21T17:17:01.977Z,100926.13
2023-05-21T17:19:29.441Z,100924.88
2023-05-21T17:21:56.986Z,100926.63
2023-05-21T17:24:24.509Z,100925.38
2023-05-21T17:26:53.032Z,100930.91
2023-05-21T17:29:20.336Z,100931.34
2023-05-21T17:31:47.937Z,100940.53
2023-05-21T17:34:16.770Z,100929.03
2023-05-21T17:36:44.178Z,100934.19
2023-05-21T17:39:11.514Z,100947.25
2023-05-21T17:41:38.794Z,100938.66
2023-05-21T17:44:06.131Z,100937.53
2023-05-21T17:46:33.605Z,100943.88
2023-05-21T17:49:00.839Z,100932.19
2023-05-21T17:51:28.325Z,100935.81
2023-05-21T17:53:56.123Z,100955.41
2023-05-21T17:56:23.522Z,100958.53
2023-05-21T17:58:51.056Z,100957.81
2023-05-21T18:01:19.150Z,100962.41
2023-05-21T18:03:46.677Z,100956.84
2023-05-21T18:06:13.993Z,100957.81
2023-05-21T18:08:41.318Z,100964.09
2023-05-21T18:11:08.815Z,100973.06
2023-05-21T18:13:36.120Z,100972.47
2023-05-21T18:16:03.465Z,100965.97
2023-05-21T18:18:30.929Z,100961.63
2023-05-21T18:20:58.497Z,100965.25
2023-05-21T18:23:28.536Z,100964.75
2023-05-21T18:25:56.231Z,100963.19
2023-05-21T18:28:23.473Z,100975.94
2023-05-21T18:30:50.886Z,100976.19
2023-05-21T18:33:18.290Z,100976.81
2023-05-21T18:35:45.905Z,100981.22
2023-05-21T18:38:13.508Z,100972.09
2023-05-21T18:40:41.228Z,100970.84
2023-05-21T18:43:10.839Z,100970.97
2023-05-21T18:45:38.219Z,100982.75
2023-05-21T18:48:05.882Z,100977.38
2023-05-21T18:50:34.959Z,100986.81
2023-05-21T18:53:02.768Z,100985.84
2023-05-21T18:55:30.086Z,100994.91
2023-05-21T18:57:57.392Z,100990.78
2023-05-21T19:00:24.741Z,101001.44
2023-05-21T19:02:52.187Z,101001.28
2023-05-21T19:05:19.673Z,101009.59
2023-05-21T19:07:47.428Z,101010.19
2023-05-21T19:10:14.717Z,101011.38
2023-05-21T19:12:43.412Z,101017.66
2023-05-21T19:15:11.403Z,101002.91
2023-05-21T19:17:39.924Z,101017.16
2023-05-21T19:20:09.119Z,101013.72
2023-05-21T19:22:37.231Z,101014.75
2023-05-21T19:25:05.018Z,101015.25
2023-05-21T19:27:32.434Z,101010.41
2023-05-21T19:29:59.710Z,101015.00
2023-05-21T19:32:27.171Z,101021.09
2023-05-21T19:34:54.595Z,101015.34
2023-05-21T19:37:22.302Z,101036.97
2023-05-21T19:39:50.300Z,101017.81
2023-05-21T19:42:18.516Z,101026.91
2023-05-21T19:44:46.249Z,101031.94
2023-05-21T19:47:13.810Z,101026.88
2023-05-21T19:49:41.072Z,101031.66
2023-05-21T19:52:08.743Z,101038.81
2023-05-21T19:54:36.339Z,101031.22
2023-05-21T19:57:03.820Z,101028.97
2023-05-21T19:59:31.135Z,101042.00
2023-05-21T20:01:58.686Z,101046.19
2023-05-21T20:04:26.124Z,101039.88
2023-05-21T20:06:53.517Z,101046.16
2023-05-21T20:09:20.918Z,101047.44
2023-05-21T20:11:48.715Z,101047.13
2023-05-21T20:14:16.269Z,101052.13
2023-05-21T20:16:47.211Z,101061.63
2023-05-21T20:19:15.309Z,101063.34
2023-05-21T20:21:42.939Z,101062.84
2023-05-21T20:24:11.405Z,101059.13
2023-05-21T20:26:39.798Z,101065.69
2023-05-21T20:29:08.241Z,101075.88
2023-05-21T20:31:36.047Z,101070.63
2023-05-21T20:34:07.877Z,101073.13
2023-05-21T20:36:36.429Z,101084.44
2023-05-21T20:39:03.853Z,101093.19
2023-05-21T20:41:37.380Z,101083.25
2023-05-21T20:44:05.378Z,101080.81
2023-05-21T20:46:33.102Z,101076.25
2023-05-21T20:49:00.545Z,101085.25
2023-05-21T20:51:27.831Z,101088.81
2023-05-21T20:53:55.331Z,101082.88
2023-05-21T20:56:40.016Z,101083.03
2023-05-21T20:59:09.245Z,101081.94
2023-05-21T21:01:39.243Z,101085.06
2023-05-21T21:04:06.711Z,101087.78
2023-05-21T21:06:34.895Z,101081.75
2023-05-21T21:09:02.176Z,101074.56
2023-05-21T21:11:29.436Z,101078.75
2023-05-21T21:13:56.777Z,101085.03
2023-05-21T21:16:24.142Z,101099.06
2023-05-21T21:18:51.561Z,101077.84
2023-05-21T21:21:19.462Z,101085.16
2023-05-21T21:23:46.801Z,101083.16
2023-05-21T21:26:14.112Z,101082.94
2023-05-21T21:28:41.532Z,101098.50
2023-05-21T21:31:08.878Z,101092.25
2023-05-21T21:33:36.197Z,101094.00
2023-05-21T21:36:03.694Z,101091.09
2023-05-21T21:38:30.889Z,101099.53
2023-05-21T21:40:58.131Z,101095.50
2023-05-21T21:43:25.523Z,101098.72
2023-05-21T21:45:52.821Z,101098.16
2023-05-21T21:48:20.189Z,101095.59
2023-05-21T21:50:47.562Z,101088.31
2023-05-21T21:53:14.867Z,101089.13
2023-05-21T21:55:42.238Z,101090.63
2023-05-21T21:58:09.518Z,101093.88
2023-05-21T22:00:37.431Z,101086.09
2023-05-21T22:03:05.062Z,101084.59
2023-05-21T22:05:32.680Z,101089.91
2023-05-21T22:08:00.167Z,101085.16
2023-05-21T22:10:27.533Z,101096.31
2023-05-21T22:12:54.784Z,101100.03
2023-05-21T22:15:28.705Z,101093.06
2023-05-21T22:17:56.237Z,101095.25
2023-05-21T22:20:23.600Z,101093.41
2023-05-21T22:22:51.701Z,101089.69
2023-05-21T22:25:19.821Z,101097.69
2023-05-21T22:27:47.133Z,101089.59
2023-05-21T22:30:14.486Z,101084.56
2023-05-21T22:32:41.855Z,101087.81
2023-05-21T22:35:09.668Z,101088.84
2023-05-21T22:37:37.430Z,101089.44
2023-05-21T22:40:08.614Z,101099.44
2023-05-21T22:42:36.423Z,101103.66
2023-05-21T22:45:04.314Z,101096.28
2023-05-21T22:47:32.315Z,101094.97
2023-05-21T22:50:00.845Z,101102.47
2023-05-21T22:52:28.825Z,101100.56
2023-05-21T22:54:57.837Z,101105.94
2023-05-21T22:57:25.126Z,101101.00
2023-05-21T22:59:52.516Z,101106.41
2023-05-21T23:02:19.772Z,101106.75
2023-05-21T23:04:48.361Z,101102.53
2023-05-21T23:07:16.044Z,101110.06
2023-05-21T23:09:43.475Z,101097.06
2023-05-21T23:12:11.038Z,101112.09
2023-05-21T23:14:38.368Z,101109.09
2023-05-21T23:17:05.934Z,101111.75
2023-05-21T23:19:33.565Z,101108.06
2023-05-21T23:22:01.010Z,101106.59
2023-05-21T23:24:29.564Z,101111.38
2023-05-21T23:27:02.112Z,101099.03
2023-05-21T23:29:30.397Z,101095.09
2023-05-21T23:31:58.079Z,101107.78
2023-05-21T23:34:25.751Z,101104.56
2023-05-21T23:36:53.375Z,101099.16
2023-05-21T23:39:21.172Z,101107.28
2023-05-21T23:41:48.926Z,101108.19
2023-05-21T23:44:16.381Z,101107.13
2023-05-21T23:46:43.682Z,101108.16
2023-05-21T23:49:11.591Z,101105.78
2023-05-21T23:51:39.540Z,101114.09
2023-05-21T23:54:08.000Z,101103.53
2023-05-21T23:56:35.551Z,101111.81
2023-05-21T23:59:02.884Z,101103.53
